Golden Iris — 3FZK4 — position and weather

sailwx.info

Track history (hours):
 
Tides and Currents Weather Stations Pressure Air Temp Water Temp Dewpoint Dewpoint Depression Visibility Wind Speed Wind Dir Waves Ship Positions

Golden Iris

Last reported at 2014-Sep-19 05:24 UTC. Time now 2014-Sep-23 14:29 UTC.
Position N 32°53' E 034°50'.

Length 180 m; draft 6 m.

Type: Passenger vessel. MMSI: 371771000.

Date/timePositionNaut miles runAvg speedWind from/ knotsBaromVisibWave heightAir tempDewpointWater temp
2014-Sep-19 05:24N 32°53' E 034°50'  
2014-Sep-15 21:33N 35°53' E 015°41'1312.7
2014-Sep-15 20:33N 35°53' E 015°26'1312.8
2014-Sep-15 19:33N 35°53' E 015°10'1313.0
2014-Sep-15 18:34N 35°55' E 014°54'1313.2
2014-Sep-15 17:33N 35°55' E 014°37'6 2.3
2014-Sep-15 15:07N 35°53' E 014°31'0 0.0
2014-Sep-15 14:07N 35°53' E 014°31'0 0.0
2014-Sep-15 13:28N 35°53' E 014°31'0 0.0
2014-Sep-15 11:16N 35°53' E 014°31'0 0.0
2014-Sep-15 10:31N 35°53' E 014°31'0 0.0
2014-Sep-15 09:28N 35°53' E 014°31'4 0.8
2014-Sep-15 04:28N 35°56' E 014°34'9 9.8
2014-Sep-15 03:33N 36°04' E 014°41'9 9.4
2014-Sep-15 02:33N 36°11' E 014°48'10 9.6
2014-Sep-15 01:33N 36°19' E 014°55'257 7.8
2014-Sep-13 16:31N 40°33' E 014°10'1414.7
2014-Sep-13 15:33N 40°46' E 014°16'1 0.1
2014-Sep-13 05:33N 40°47' E 014°15'1212.4
2014-Sep-13 04:33N 40°40' E 014°03'1615.0
2014-Sep-13 03:29N 40°40' E 013°41'1415.4
2014-Sep-13 02:33N 40°43' E 013°23'126 3.5
2014-Sep-11 14:33N 38°37' E 013°21'1514.8
2014-Sep-11 13:33N 38°23' E 013°24'1313.3
2014-Sep-11 12:33N 38°10' E 013°26'4 3.9
2014-Sep-11 11:33N 38°08' E 013°22'0 0.0
2014-Sep-11 10:30N 38°08' E 013°22'44 4.8
2014-Sep-11 01:25N 38°14' E 014°17'4014.1
2014-Sep-10 22:33N 38°19' E 015°09'1515.2
2014-Sep-10 21:33N 38°21' E 015°28'10 7.4
2014-Sep-10 20:13N 38°14' E 015°37'1115.4
2014-Sep-10 19:31N 38°03' E 015°36'  
Track history (hours):
 
Tides and Currents Weather Stations Pressure Air Temp Water Temp Dewpoint Dewpoint Depression Visibility Wind Speed Wind Dir Waves Ship Positions

Golden Iris

Last reported at 2014-Sep-19 05:24 UTC. Time now 2014-Sep-23 14:29 UTC.
Position N 32°53' E 034°50'.

Length 180 m; draft 6 m.

Type: Passenger vessel. MMSI: 371771000.

Date/timePositionNaut miles runAvg speedWind from/ knotsBaromVisibWave heightAir tempDewpointWater temp
2014-Sep-19 05:24N 32°53' E 034°50'  
2014-Sep-15 21:33N 35°53' E 015°41'1312.7
2014-Sep-15 20:33N 35°53' E 015°26'1312.8
2014-Sep-15 19:33N 35°53' E 015°10'1313.0
2014-Sep-15 18:34N 35°55' E 014°54'1313.2
2014-Sep-15 17:33N 35°55' E 014°37'6 2.3
2014-Sep-15 15:07N 35°53' E 014°31'0 0.0
2014-Sep-15 14:07N 35°53' E 014°31'0 0.0
2014-Sep-15 13:28N 35°53' E 014°31'0 0.0
2014-Sep-15 11:16N 35°53' E 014°31'0 0.0
2014-Sep-15 10:31N 35°53' E 014°31'0 0.0
2014-Sep-15 09:28N 35°53' E 014°31'4 0.8
2014-Sep-15 04:28N 35°56' E 014°34'9 9.8
2014-Sep-15 03:33N 36°04' E 014°41'9 9.4
2014-Sep-15 02:33N 36°11' E 014°48'10 9.6
2014-Sep-15 01:33N 36°19' E 014°55'257 7.8
2014-Sep-13 16:31N 40°33' E 014°10'1414.7
2014-Sep-13 15:33N 40°46' E 014°16'1 0.1
2014-Sep-13 05:33N 40°47' E 014°15'1212.4
2014-Sep-13 04:33N 40°40' E 014°03'1615.0
2014-Sep-13 03:29N 40°40' E 013°41'1415.4
2014-Sep-13 02:33N 40°43' E 013°23'126 3.5
2014-Sep-11 14:33N 38°37' E 013°21'1514.8
2014-Sep-11 13:33N 38°23' E 013°24'1313.3
2014-Sep-11 12:33N 38°10' E 013°26'4 3.9
2014-Sep-11 11:33N 38°08' E 013°22'0 0.0
2014-Sep-11 10:30N 38°08' E 013°22'44 4.8
2014-Sep-11 01:25N 38°14' E 014°17'4014.1
2014-Sep-10 22:33N 38°19' E 015°09'1515.2
2014-Sep-10 21:33N 38°21' E 015°28'10 7.4
2014-Sep-10 20:13N 38°14' E 015°37'1115.4
2014-Sep-10 19:31N 38°03' E 015°36'  

Dump ship's entire track history